Time;durP1;ratioP1;P1;durP2;ratioP2;P2;SDS_P1;SDS_P2;PMS_P1;PMS_P2;Temp;Humidity;BMP_temperature;BMP_pressure;BME280_temperature;BME280_humidity;BME280_pressure;Samples;Min_cycle;Max_cycle;Signal;HPM_P1;HPM_P2
2022/10/25 00:02:16;;;;;;;6.00;3.35;;;12.40;99.90;;;;;;4954208;29;20132;-68
2022/10/25 00:04:41;;;;;;;11.63;3.75;;;12.50;99.90;;;;;;4937107;29;20547;-67
2022/10/25 00:07:07;;;;;;;15.73;3.85;;;12.30;99.90;;;;;;4936909;29;20182;-67
2022/10/25 00:09:33;;;;;;;5.40;3.42;;;12.30;99.90;;;;;;4954469;29;20047;-67
2022/10/25 00:11:59;;;;;;;8.40;3.35;;;12.30;99.90;;;;;;4954091;29;20543;-67
2022/10/25 00:14:24;;;;;;;4.82;3.17;;;12.30;99.90;;;;;;4954408;29;20110;-67
2022/10/25 00:16:50;;;;;;;8.20;3.92;;;12.30;99.90;;;;;;4954669;29;20083;-68
2022/10/25 00:19:16;;;;;;;9.88;4.40;;;12.30;99.90;;;;;;4954343;29;20049;-67
2022/10/25 00:21:41;;;;;;;11.07;3.97;;;12.30;99.90;;;;;;4954254;29;20050;-67
2022/10/25 00:24:10;;;;;;;9.82;3.95;;;12.40;99.90;;;;;;4954195;29;20050;-68
2022/10/25 00:26:35;;;;;;;7.00;4.13;;;12.20;99.90;;;;;;4954112;28;20451;-67
2022/10/25 00:29:01;;;;;;;6.22;4.00;;;12.30;99.90;;;;;;4953971;29;20047;-68
2022/10/25 00:31:27;;;;;;;9.68;4.80;;;12.20;99.90;;;;;;4954201;29;20159;-67
2022/10/25 00:33:52;;;;;;;7.53;4.40;;;12.30;99.90;;;;;;4954211;29;20446;-67
2022/10/25 00:36:24;;;;;;;10.18;4.38;;;12.30;99.90;;;;;;4936743;29;20078;-67
2022/10/25 00:38:50;;;;;;;8.90;4.60;;;12.30;99.90;;;;;;4936724;29;20039;-67
2022/10/25 00:41:19;;;;;;;12.35;4.70;;;12.30;99.90;;;;;;4953907;29;20044;-67
2022/10/25 00:43:50;;;;;;;6.68;3.90;;;12.40;99.90;;;;;;4954010;29;20452;-67
2022/10/25 00:46:22;;;;;;;;;;;12.40;99.90;;;;;;4937324;29;20035;-67
2022/10/25 00:49:07;;;;;;;7.70;4.25;;;12.20;99.90;;;;;;4954066;29;19973;-67
2022/10/25 00:51:37;;;;;;;8.40;4.68;;;12.50;99.90;;;;;;4937150;29;20047;-67
2022/10/25 00:54:07;;;;;;;8.18;4.78;;;12.50;99.90;;;;;;4954135;29;20051;-67
2022/10/25 00:56:36;;;;;;;7.53;3.95;;;12.60;99.90;;;;;;4936866;29;20102;-67
2022/10/25 00:59:06;;;;;;;8.85;4.85;;;12.60;99.90;;;;;;4936538;29;20055;-67
2022/10/25 01:01:32;;;;;;;8.63;4.90;;;12.60;99.90;;;;;;4956545;28;20122;-67
2022/10/25 01:04:01;;;;;;;9.60;4.65;;;12.60;99.90;;;;;;4957458;29;20525;-67
2022/10/25 01:06:39;;;;;;;9.00;4.68;;;12.70;99.90;;;;;;4957169;29;20039;-67
2022/10/25 01:09:08;;;;;;;9.88;4.70;;;12.70;99.90;;;;;;4957499;29;20043;-67
2022/10/25 01:11:36;;;;;;;10.63;5.60;;;12.70;99.90;;;;;;4940225;29;20043;-67
2022/10/25 01:14:03;;;;;;;10.27;4.78;;;12.70;99.90;;;;;;4957047;29;20053;-67
2022/10/25 01:16:58;;;;;;;10.38;4.75;;;12.90;99.90;;;;;;4939744;29;20050;-67
2022/10/25 01:19:44;;;;;;;12.88;5.05;;;12.80;99.90;;;;;;4957248;29;20055;-67
2022/10/25 01:22:13;;;;;;;8.75;4.80;;;12.80;99.90;;;;;;4957248;29;20546;-67
2022/10/25 01:25:02;;;;;;;7.45;3.90;;;12.80;99.90;;;;;;4939771;29;20130;-67
2022/10/25 01:27:58;;;;;;;6.18;4.15;;;12.90;99.90;;;;;;4956801;29;20091;-67
2022/10/25 01:30:30;;;;;;;9.38;4.65;;;12.90;99.90;;;;;;4956801;29;20047;-67
2022/10/25 01:33:13;;;;;;;11.10;4.47;;;12.80;99.90;;;;;;4957019;29;20040;-67
2022/10/25 01:36:03;;;;;;;7.90;4.30;;;12.90;99.90;;;;;;4956656;29;20039;-67
2022/10/25 01:38:58;;;;;;;8.00;4.18;;;12.90;99.90;;;;;;4956926;29;20051;-67
2022/10/25 01:41:48;;;;;;;9.35;4.65;;;12.90;99.90;;;;;;4939651;29;20507;-68
2022/10/25 01:44:38;;;;;;;9.18;4.35;;;12.90;99.90;;;;;;4939465;29;20411;-67
2022/10/25 01:47:18;;;;;;;10.20;4.90;;;13.00;99.90;;;;;;4956783;29;20047;-67
2022/10/25 01:49:49;;;;;;;8.77;4.60;;;13.00;99.90;;;;;;4940109;29;20106;-67
2022/10/25 01:52:21;;;;;;;8.38;4.45;;;13.00;99.90;;;;;;4956707;29;20631;-67
2022/10/25 01:54:49;;;;;;;8.43;4.75;;;13.00;99.90;;;;;;4956338;29;20039;-68
2022/10/25 01:57:40;;;;;;;7.55;4.40;;;12.90;99.90;;;;;;4956519;29;20043;-67
2022/10/25 02:00:08;;;;;;;5.40;3.45;;;13.00;99.90;;;;;;4939045;29;20074;-68
2022/10/25 02:03:10;;;;;;;5.82;3.55;;;12.90;99.90;;;;;;4956526;29;20106;-67
2022/10/25 02:06:04;;;;;;;6.65;3.38;;;12.90;99.90;;;;;;4939179;29;20122;-67
2022/10/25 02:09:20;;;;;;;7.50;3.70;;;12.90;99.90;;;;;;4956339;29;20391;-67
2022/10/25 02:11:49;;;;;;;5.65;3.72;;;12.90;99.90;;;;;;4877528;29;20106;-67
2022/10/25 02:14:33;;;;;;;13.63;4.60;;;12.90;99.90;;;;;;4941429;29;20051;-67
2022/10/25 02:17:21;;;;;;;8.65;4.30;;;12.90;99.90;;;;;;4956242;29;20054;-67
2022/10/25 02:19:53;;;;;;;9.77;4.47;;;12.90;99.90;;;;;;4956171;29;20046;-67
2022/10/25 02:22:22;;;;;;;8.98;3.80;;;12.90;99.90;;;;;;4938843;29;20047;-67
2022/10/25 02:24:50;;;;;;;7.78;4.07;;;12.80;99.90;;;;;;4955705;29;20043;-67
2022/10/25 02:27:19;;;;;;;6.90;4.15;;;12.80;99.90;;;;;;4955637;29;20055;-67
2022/10/25 02:29:46;;;;;;;9.85;4.20;;;12.80;99.90;;;;;;4938571;29;20051;-67
2022/10/25 02:32:12;;;;;;;12.48;4.30;;;12.80;99.90;;;;;;4955936;29;20110;-67
2022/10/25 02:34:39;;;;;;;7.47;3.75;;;12.80;99.90;;;;;;4955571;29;20047;-67
2022/10/25 02:37:05;;;;;;;5.53;3.92;;;12.80;99.90;;;;;;4955828;29;20047;-67
2022/10/25 02:39:31;;;;;;;6.22;3.80;;;13.10;99.90;;;;;;4938368;29;20046;-67
2022/10/25 02:41:57;;;;;;;5.72;3.55;;;12.80;99.90;;;;;;4955452;29;20046;-67
2022/10/25 02:44:23;;;;;;;6.05;3.75;;;12.80;99.90;;;;;;4955599;29;20065;-67
2022/10/25 02:46:48;;;;;;;4.88;3.50;;;12.80;99.90;;;;;;4938465;29;20035;-67
2022/10/25 02:49:14;;;;;;;9.50;4.10;;;12.80;99.90;;;;;;4955356;29;20377;-67
2022/10/25 02:51:40;;;;;;;8.60;4.60;;;12.80;99.90;;;;;;4955527;29;20053;-67
2022/10/25 02:54:05;;;;;;;7.75;3.58;;;12.80;99.90;;;;;;4955603;29;20043;-67
2022/10/25 02:56:31;;;;;;;6.18;3.72;;;12.80;99.90;;;;;;4938086;29;20043;-67
2022/10/25 02:58:57;;;;;;;7.28;3.83;;;12.80;99.90;;;;;;4955492;29;20159;-67
2022/10/25 03:01:23;;;;;;;7.95;4.18;;;12.80;99.90;;;;;;4938205;29;20039;-67
2022/10/25 03:03:49;;;;;;;7.10;4.20;;;12.80;99.90;;;;;;4955250;29;20047;-68
2022/10/25 03:06:16;;;;;;;7.22;3.97;;;12.80;99.90;;;;;;4955306;29;20035;-67
2022/10/25 03:08:42;;;;;;;8.52;4.07;;;12.80;99.90;;;;;;4955089;29;20130;-67
2022/10/25 03:11:09;;;;;;;7.47;4.07;;;12.90;99.90;;;;;;4955227;29;20053;-67
2022/10/25 03:13:35;;;;;;;6.57;3.55;;;12.90;99.90;;;;;;4954924;29;20035;-67
2022/10/25 03:16:01;;;;;;;6.05;3.55;;;12.90;99.90;;;;;;4955200;29;20122;-67
2022/10/25 03:18:27;;;;;;;6.32;3.47;;;12.90;99.90;;;;;;4955036;29;20171;-67
2022/10/25 03:20:59;;;;;;;10.10;4.30;;;12.80;99.90;;;;;;4955390;29;20486;-68
2022/10/25 03:23:26;;;;;;;6.38;4.10;;;12.90;99.90;;;;;;4954519;28;20047;-67
2022/10/25 03:25:53;;;;;;;5.47;3.75;;;12.80;99.90;;;;;;4954622;29;20093;-68
2022/10/25 03:28:19;;;;;;;10.10;4.20;;;12.80;99.90;;;;;;4954637;29;20063;-67
2022/10/25 03:30:44;;;;;;;6.90;3.80;;;12.90;99.90;;;;;;4954907;29;20395;-67
2022/10/25 03:33:10;;;;;;;8.05;3.80;;;12.90;99.90;;;;;;4954953;29;20045;-67
2022/10/25 03:35:36;;;;;;;7.03;4.57;;;12.80;99.90;;;;;;4937536;29;20053;-67
2022/10/25 03:38:01;;;;;;;8.00;3.63;;;12.80;99.90;;;;;;4954844;29;20122;-67
2022/10/25 03:40:28;;;;;;;9.93;3.75;;;12.80;99.90;;;;;;4937485;29;20058;-67
2022/10/25 03:42:53;;;;;;;6.63;3.72;;;12.80;99.90;;;;;;4954805;29;20582;-67
2022/10/25 03:45:19;;;;;;;7.68;4.15;;;12.80;99.90;;;;;;4954644;29;20106;-68
2022/10/25 03:47:45;;;;;;;6.93;3.63;;;12.70;99.90;;;;;;4937525;29;20035;-67
2022/10/25 03:50:11;;;;;;;8.75;4.05;;;12.80;99.90;;;;;;4954630;29;20078;-67
2022/10/25 03:52:37;;;;;;;6.93;3.95;;;12.70;99.90;;;;;;4937437;29;20046;-67
2022/10/25 03:55:04;;;;;;;12.38;3.85;;;12.70;99.90;;;;;;4937397;29;20062;-68
2022/10/25 03:57:30;;;;;;;7.63;4.40;;;12.60;99.90;;;;;;4954528;29;20380;-67
2022/10/25 03:59:59;;;;;;;9.02;3.80;;;12.70;99.90;;;;;;4936984;29;20047;-67
2022/10/25 04:02:25;;;;;;;5.80;3.75;;;12.60;99.90;;;;;;4954464;29;20039;-67
2022/10/25 04:04:51;;;;;;;6.82;3.63;;;12.60;99.90;;;;;;4936976;29;20043;-67
2022/10/25 04:07:18;;;;;;;6.10;3.45;;;12.60;99.90;;;;;;4954472;29;20114;-67
2022/10/25 04:09:44;;;;;;;7.50;3.42;;;12.60;99.90;;;;;;4954226;29;20195;-67
2022/10/25 04:12:10;;;;;;;8.35;3.75;;;12.60;99.90;;;;;;4954355;29;20039;-67
2022/10/25 04:14:35;;;;;;;7.45;3.28;;;12.60;99.90;;;;;;4954383;29;20070;-67
2022/10/25 04:17:01;;;;;;;6.40;3.20;;;12.60;99.90;;;;;;4954060;29;20043;-67
2022/10/25 04:19:27;;;;;;;6.25;3.60;;;12.60;99.90;;;;;;4954325;29;20065;-67
2022/10/25 04:21:52;;;;;;;7.20;4.13;;;12.70;99.90;;;;;;4954020;29;20079;-67
2022/10/25 04:24:18;;;;;;;6.85;3.50;;;12.70;99.90;;;;;;4953875;29;20047;-67
2022/10/25 04:26:44;;;;;;;6.40;3.33;;;12.70;99.90;;;;;;4953978;28;20054;-67
2022/10/25 04:29:10;;;;;;;8.02;3.97;;;12.70;99.90;;;;;;4953916;29;20055;-68
2022/10/25 04:31:36;;;;;;;5.43;3.25;;;12.70;99.90;;;;;;4937079;29;20504;-67
2022/10/25 04:34:01;;;;;;;7.38;4.13;;;12.70;99.90;;;;;;4936912;29;20122;-67
2022/10/25 04:36:28;;;;;;;6.57;4.03;;;12.60;99.90;;;;;;4956801;28;20399;-67
2022/10/25 04:38:53;;;;;;;10.60;4.07;;;12.60;99.90;;;;;;4940805;29;20522;-67
2022/10/25 04:41:19;;;;;;;6.40;3.30;;;12.60;99.90;;;;;;4957959;29;20075;-67
2022/10/25 04:43:45;;;;;;;4.68;3.13;;;12.50;99.90;;;;;;4957932;29;20031;-67
2022/10/25 04:46:11;;;;;;;6.00;3.75;;;12.70;99.90;;;;;;4940334;29;20044;-67
2022/10/25 04:48:38;;;;;;;4.60;3.10;;;12.50;99.90;;;;;;4940531;29;20051;-67
2022/10/25 04:51:04;;;;;;;5.68;3.13;;;12.50;99.90;;;;;;4957775;29;20039;-67
2022/10/25 04:53:30;;;;;;;7.40;3.78;;;12.60;99.90;;;;;;4957578;29;20118;-68
2022/10/25 04:56:01;;;;;;;7.40;3.75;;;12.50;99.90;;;;;;4957707;29;20035;-68
2022/10/25 04:58:27;;;;;;;5.82;3.50;;;12.50;99.90;;;;;;4957664;29;20054;-67
2022/10/25 05:00:57;;;;;;;6.78;3.53;;;12.50;99.90;;;;;;4957662;29;20039;-68
2022/10/25 05:03:23;;;;;;;5.88;3.78;;;12.80;99.90;;;;;;4957629;29;20047;-67
2022/10/25 05:05:48;;;;;;;10.15;4.22;;;12.40;99.90;;;;;;4957226;29;20047;-68
2022/10/25 05:08:14;;;;;;;9.57;3.60;;;12.40;99.90;;;;;;4940000;29;20046;-67
2022/10/25 05:10:40;;;;;;;9.88;3.65;;;12.30;99.90;;;;;;4957465;29;20043;-67
2022/10/25 05:13:05;;;;;;;7.47;3.53;;;12.40;99.90;;;;;;4939927;29;20054;-67
2022/10/25 05:15:31;;;;;;;8.02;3.80;;;12.40;99.90;;;;;;4957029;29;20047;-68
2022/10/25 05:18:00;;;;;;;11.30;3.85;;;12.40;99.90;;;;;;4939781;29;20082;-67
2022/10/25 05:20:27;;;;;;;10.68;4.22;;;12.40;99.90;;;;;;4939609;29;20051;-67
2022/10/25 05:22:53;;;;;;;9.13;3.63;;;12.40;99.90;;;;;;4940146;29;20559;-68
2022/10/25 05:25:20;;;;;;;8.15;3.92;;;12.40;99.90;;;;;;4939460;29;20102;-68
2022/10/25 05:27:46;;;;;;;12.77;3.70;;;12.40;99.90;;;;;;4956521;29;20056;-67
2022/10/25 05:30:12;;;;;;;7.53;3.80;;;12.60;99.90;;;;;;4957053;29;20054;-67
2022/10/25 05:32:37;;;;;;;8.00;3.83;;;12.40;99.90;;;;;;4957334;29;20051;-67
2022/10/25 05:35:04;;;;;;;10.30;3.58;;;12.40;99.90;;;;;;4957027;29;20499;-67
2022/10/25 05:37:29;;;;;;;7.93;3.95;;;12.40;99.90;;;;;;4956953;29;20057;-68
2022/10/25 05:39:55;;;;;;;17.05;4.15;;;12.40;99.90;;;;;;4956951;29;20047;-67
2022/10/25 05:42:20;;;;;;;15.02;3.47;;;12.40;99.90;;;;;;4956899;29;20047;-67
2022/10/25 05:44:46;;;;;;;8.68;3.72;;;12.40;99.90;;;;;;4956783;29;20472;-67
2022/10/25 05:47:12;;;;;;;6.78;3.72;;;12.40;99.90;;;;;;4955881;28;20499;-67
2022/10/25 05:49:38;;;;;;;8.45;3.40;;;12.30;99.90;;;;;;4939506;29;20426;-68
2022/10/25 05:52:07;;;;;;;6.10;3.30;;;12.30;99.90;;;;;;4956670;29;20499;-68
2022/10/25 05:54:33;;;;;;;5.78;3.08;;;12.30;99.90;;;;;;4939139;29;20047;-67
2022/10/25 05:56:58;;;;;;;6.38;2.95;;;12.30;99.90;;;;;;4956317;29;20573;-67
2022/10/25 05:59:24;;;;;;;5.50;3.53;;;12.40;99.90;;;;;;4956319;29;20035;-67
2022/10/25 06:01:50;;;;;;;6.65;3.35;;;12.40;99.90;;;;;;4956500;29;20122;-67
2022/10/25 06:04:16;;;;;;;7.68;3.28;;;12.40;99.90;;;;;;4956359;29;20043;-67
2022/10/25 06:06:44;;;;;;;6.25;2.92;;;12.40;99.90;;;;;;4956409;29;20118;-67
2022/10/25 06:09:10;;;;;;;8.00;3.83;;;12.40;99.90;;;;;;4956351;29;20047;-66
2022/10/25 06:11:37;;;;;;;6.75;2.95;;;12.40;99.90;;;;;;4938827;29;20051;-67
2022/10/25 06:14:03;;;;;;;7.50;3.35;;;12.40;99.90;;;;;;4956202;29;20392;-67
2022/10/25 06:16:29;;;;;;;6.10;3.10;;;12.40;99.90;;;;;;4939051;29;20043;-66
2022/10/25 06:18:55;;;;;;;5.22;2.97;;;12.40;99.90;;;;;;4956161;29;20039;-66
2022/10/25 06:21:23;;;;;;;5.05;3.00;;;12.40;99.90;;;;;;4922893;29;20049;-67
2022/10/25 06:23:49;;;;;;;7.97;2.67;;;12.40;99.90;;;;;;4956030;29;20098;-67
2022/10/25 06:26:18;;;;;;;4.45;2.83;;;12.40;99.90;;;;;;4955856;29;20049;-67
2022/10/25 06:28:43;;;;;;;5.07;2.83;;;12.40;99.90;;;;;;4955594;29;20065;-66
2022/10/25 06:31:12;;;;;;;4.78;2.67;;;12.50;99.90;;;;;;4938519;29;20133;-66
2022/10/25 06:33:37;;;;;;;6.68;2.78;;;12.50;99.90;;;;;;4938455;29;20119;-66
2022/10/25 06:36:06;;;;;;;4.97;2.80;;;12.50;99.90;;;;;;4955954;29;20135;-67
2022/10/25 06:38:32;;;;;;;8.30;2.92;;;12.50;99.90;;;;;;4938407;29;20062;-67
2022/10/25 06:41:03;;;;;;;4.25;2.05;;;12.50;99.90;;;;;;4955838;29;20047;-67
2022/10/25 06:43:29;;;;;;;3.20;2.38;;;12.50;99.90;;;;;;4955713;29;20051;-67
2022/10/25 06:45:55;;;;;;;6.82;2.50;;;12.40;99.90;;;;;;4955288;29;20043;-67
2022/10/25 06:48:21;;;;;;;5.03;2.58;;;12.40;99.90;;;;;;4955234;29;20122;-67
2022/10/25 06:50:47;;;;;;;5.70;2.45;;;12.50;99.90;;;;;;4955512;29;20126;-67
2022/10/25 06:53:14;;;;;;;7.05;2.47;;;12.50;99.90;;;;;;4955490;29;20095;-67
2022/10/25 06:55:41;;;;;;;9.77;2.83;;;12.60;99.90;;;;;;4955334;29;20039;-67
2022/10/25 06:58:07;;;;;;;7.82;1.95;;;12.60;99.90;;;;;;4955228;28;20043;-67
2022/10/25 07:00:32;;;;;;;4.65;2.95;;;12.60;99.90;;;;;;4937753;29;20422;-67
2022/10/25 07:02:59;;;;;;;4.75;2.72;;;12.60;99.90;;;;;;4937782;29;20203;-67
2022/10/25 07:05:25;;;;;;;7.00;2.70;;;12.60;99.90;;;;;;4955199;29;20067;-67
2022/10/25 07:07:52;;;;;;;5.47;2.70;;;12.60;99.90;;;;;;4954951;29;20129;-67
2022/10/25 07:10:18;;;;;;;5.03;2.72;;;12.60;99.90;;;;;;4954889;29;20061;-67
2022/10/25 07:12:44;;;;;;;6.47;2.47;;;12.60;99.90;;;;;;4955090;29;20113;-67
2022/10/25 07:15:10;;;;;;;3.33;1.90;;;12.70;99.90;;;;;;4937822;29;20043;-67
2022/10/25 07:17:36;;;;;;;8.50;2.63;;;12.70;99.90;;;;;;4955033;29;20050;-67
2022/10/25 07:20:02;;;;;;;4.10;2.42;;;12.70;99.90;;;;;;4954659;29;20122;-67
2022/10/25 07:22:28;;;;;;;8.18;2.60;;;12.70;99.90;;;;;;4937682;29;20047;-67
2022/10/25 07:24:54;;;;;;;5.18;1.90;;;12.80;99.90;;;;;;4954621;29;20063;-67
2022/10/25 07:27:19;;;;;;;7.53;2.25;;;12.80;99.90;;;;;;4954687;28;20082;-67
2022/10/25 07:29:45;;;;;;;4.18;2.30;;;12.80;99.90;;;;;;4954891;29;20039;-67
2022/10/25 07:32:11;;;;;;;4.72;2.20;;;13.00;99.90;;;;;;4954876;29;20094;-67
2022/10/25 07:34:36;;;;;;;13.75;2.55;;;13.10;99.90;;;;;;4954549;29;20102;-67
2022/10/25 07:37:02;;;;;;;6.68;3.20;;;13.10;99.90;;;;;;4954542;29;20117;-67
2022/10/25 07:39:28;;;;;;;3.85;2.08;;;13.20;99.90;;;;;;4937564;29;20066;-66
2022/10/25 07:41:54;;;;;;;8.75;2.50;;;13.20;99.90;;;;;;4921513;29;20070;-68
2022/10/25 07:44:20;;;;;;;3.65;2.08;;;13.30;99.90;;;;;;4954662;29;20240;-67
2022/10/25 07:46:47;;;;;;;6.00;2.30;;;13.30;99.90;;;;;;4954538;29;20093;-67
2022/10/25 07:49:13;;;;;;;11.88;2.90;;;13.30;99.90;;;;;;4937473;29;20129;-67
2022/10/25 07:51:39;;;;;;;4.50;2.67;;;13.30;99.90;;;;;;4954361;29;20504;-67
2022/10/25 07:54:05;;;;;;;5.22;2.70;;;13.30;99.90;;;;;;4937130;29;20054;-67
2022/10/25 07:56:30;;;;;;;3.30;2.20;;;13.30;99.90;;;;;;4937217;29;20524;-67
2022/10/25 07:58:56;;;;;;;7.88;3.22;;;13.30;99.90;;;;;;4936976;29;20046;-67
2022/10/25 08:01:24;;;;;;;5.30;2.95;;;13.30;99.90;;;;;;4954523;29;20039;-67
2022/10/25 08:03:51;;;;;;;6.78;2.50;;;13.40;99.90;;;;;;4954523;29;20035;-67
2022/10/25 08:06:17;;;;;;;5.43;2.72;;;13.40;99.90;;;;;;4954479;29;20411;-67
2022/10/25 08:08:43;;;;;;;12.13;3.67;;;13.50;99.90;;;;;;4954470;29;20043;-67
2022/10/25 08:11:08;;;;;;;6.22;3.25;;;13.50;99.90;;;;;;4936409;29;20503;-67
2022/10/25 08:13:36;;;;;;;5.68;2.97;;;13.50;99.90;;;;;;4937339;29;20487;-67
2022/10/25 08:16:01;;;;;;;8.82;3.75;;;13.60;99.90;;;;;;4936956;29;20047;-67
2022/10/25 08:18:27;;;;;;;7.63;3.08;;;13.70;99.90;;;;;;4936831;29;20571;-66
2022/10/25 08:20:53;;;;;;;9.38;3.75;;;13.70;99.90;;;;;;4954322;29;20173;-67
2022/10/25 08:23:19;;;;;;;14.00;3.95;;;13.60;99.90;;;;;;4954290;29;20047;-67
2022/10/25 08:25:45;;;;;;;7.28;3.38;;;13.60;99.90;;;;;;4954210;29;20439;-67
2022/10/25 08:28:11;;;;;;;5.65;3.40;;;13.70;99.90;;;;;;4953810;28;20489;-67
2022/10/25 08:30:36;;;;;;;7.50;2.97;;;13.70;99.90;;;;;;4936992;29;20078;-67
2022/10/25 08:33:02;;;;;;;5.95;3.20;;;13.70;99.90;;;;;;4953927;29;20043;-67
2022/10/25 08:35:28;;;;;;;10.60;3.75;;;13.80;99.90;;;;;;4954010;29;20058;-67
2022/10/25 08:37:54;;;;;;;7.70;3.70;;;13.80;99.90;;;;;;4954172;29;20414;-67
2022/10/25 08:40:24;;;;;;;5.45;3.42;;;13.90;99.90;;;;;;4954125;29;20039;-68
2022/10/25 08:43:11;;;;;;;9.80;3.55;;;13.90;99.90;;;;;;4953911;29;20094;-67
2022/10/25 08:45:50;;;;;;;6.63;3.25;;;13.90;99.90;;;;;;4954020;29;20260;-73
2022/10/25 08:48:21;;;;;;;5.15;2.88;;;13.90;99.90;;;;;;4936619;29;20049;-67
2022/10/25 08:50:50;;;;;;;6.88;3.60;;;14.00;99.90;;;;;;4953781;29;20083;-67
2022/10/25 08:53:41;;;;;;;8.48;3.58;;;14.10;99.90;;;;;;4954114;29;20391;-67
2022/10/25 08:56:12;;;;;;;5.32;3.25;;;14.20;99.90;;;;;;4954080;29;20143;-67
2022/10/25 08:58:54;;;;;;;6.13;3.33;;;14.20;99.90;;;;;;4954038;29;20443;-67
2022/10/25 09:01:37;;;;;;;5.15;3.50;;;14.40;99.90;;;;;;4953976;29;20095;-67
2022/10/25 09:04:03;;;;;;;6.70;3.15;;;14.30;99.90;;;;;;4936453;29;20055;-67
2022/10/25 09:06:39;;;;;;;13.00;3.42;;;14.30;99.90;;;;;;4936393;29;20103;-67
2022/10/25 09:09:15;;;;;;;6.13;3.65;;;14.30;99.90;;;;;;4953936;29;20507;-67
2022/10/25 09:11:57;;;;;;;8.85;3.53;;;14.20;99.90;;;;;;4953949;29;20051;-67
2022/10/25 09:14:45;;;;;;;5.60;3.20;;;14.20;99.90;;;;;;4953913;29;20062;-67
2022/10/25 09:17:24;;;;;;;4.70;2.67;;;14.20;99.90;;;;;;4953638;29;20047;-67
2022/10/25 09:19:55;;;;;;;5.80;3.13;;;14.20;99.90;;;;;;4953868;29;20488;-67
2022/10/25 09:22:28;;;;;;;9.52;3.80;;;14.30;99.90;;;;;;4954641;28;20046;-68
2022/10/25 09:24:58;;;;;;;13.02;3.10;;;14.40;99.90;;;;;;4957185;29;20406;-67
2022/10/25 09:27:44;;;;;;;5.13;3.03;;;14.40;99.90;;;;;;4957160;29;20487;-67
2022/10/25 09:30:12;;;;;;;5.80;2.78;;;14.40;99.90;;;;;;4917390;29;20051;-67
2022/10/25 09:32:43;;;;;;;8.73;2.60;;;14.50;99.90;;;;;;4939781;29;20500;-67
2022/10/25 09:35:16;;;;;;;5.47;2.22;;;14.50;99.90;;;;;;4939595;29;20058;-67
2022/10/25 09:37:47;;;;;;;10.98;2.72;;;14.60;99.90;;;;;;4956932;29;20039;-68
2022/10/25 09:40:24;;;;;;;5.13;2.85;;;14.60;99.90;;;;;;4957022;29;20047;-67
2022/10/25 09:43:01;;;;;;;7.47;2.72;;;14.70;99.90;;;;;;4939466;29;20059;-67
2022/10/25 09:45:33;;;;;;;5.07;2.95;;;14.80;99.90;;;;;;4956441;29;20047;-67
2022/10/25 09:48:01;;;;;;;11.70;2.85;;;14.90;99.90;;;;;;4956801;29;20168;-67
2022/10/25 09:50:31;;;;;;;3.42;2.10;;;15.00;99.90;;;;;;4956749;29;20036;-67
2022/10/25 09:53:15;;;;;;;7.15;2.60;;;15.10;99.90;;;;;;4956645;29;20047;-67
2022/10/25 09:55:44;;;;;;;7.65;2.08;;;15.20;99.90;;;;;;4956691;29;20502;-68
2022/10/25 09:58:24;;;;;;;6.35;1.88;;;15.30;99.90;;;;;;4956617;29;20082;-68
2022/10/25 10:00:52;;;;;;;3.95;2.47;;;15.30;99.90;;;;;;4956578;29;20043;-67
2022/10/25 10:03:19;;;;;;;5.15;2.28;;;15.40;99.90;;;;;;4939270;29;20495;-68
2022/10/25 10:05:58;;;;;;;3.95;2.00;;;15.40;99.90;;;;;;4956341;29;20079;-67
2022/10/25 10:08:24;;;;;;;4.25;1.60;;;15.40;99.90;;;;;;4956027;29;20047;-67
2022/10/25 10:10:52;;;;;;;4.57;1.60;;;15.40;99.90;;;;;;4956387;29;20118;-67
2022/10/25 10:13:40;;;;;;;2.95;1.50;;;15.30;99.90;;;;;;4956134;29;20070;-67
2022/10/25 10:16:29;;;;;;;2.47;1.70;;;15.20;99.90;;;;;;4955975;29;20134;-67
2022/10/25 10:19:18;;;;;;;2.70;1.67;;;15.20;99.90;;;;;;4955948;29;20043;-67
2022/10/25 10:21:51;;;;;;;7.93;2.28;;;15.10;99.90;;;;;;4945852;29;20507;-68
2022/10/25 10:24:35;;;;;;;4.80;2.00;;;15.10;99.90;;;;;;4938591;29;20051;-67
2022/10/25 10:27:05;;;;;;;3.13;1.40;;;15.10;99.90;;;;;;4938962;29;20121;-67
2022/10/25 10:29:36;;;;;;;11.57;1.73;;;15.10;99.90;;;;;;4955677;28;20126;-67
2022/10/25 10:32:21;;;;;;;2.22;1.58;;;15.20;99.90;;;;;;4938677;29;20035;-67
2022/10/25 10:34:56;;;;;;;9.70;2.05;;;15.20;99.90;;;;;;4938066;29;20042;-66
2022/10/25 10:37:26;;;;;;;3.63;1.77;;;15.20;99.90;;;;;;4955832;29;20047;-67
2022/10/25 10:40:05;;;;;;;7.93;1.88;;;15.10;99.90;;;;;;4955765;29;20043;-65
2022/10/25 10:42:31;;;;;;;8.18;1.98;;;15.10;99.90;;;;;;4955748;29;20043;-66
2022/10/25 10:45:06;;;;;;;4.18;1.42;;;15.30;99.90;;;;;;4955650;29;20047;-66
2022/10/25 10:47:53;;;;;;;3.38;1.80;;;15.50;99.90;;;;;;4955497;29;20054;-66
2022/10/25 10:50:22;;;;;;;10.82;2.22;;;15.70;99.90;;;;;;4955671;29;20043;-65
2022/10/25 10:52:56;;;;;;;7.82;2.28;;;15.70;99.90;;;;;;4955361;29;20138;-66
2022/10/25 10:55:27;;;;;;;7.07;1.45;;;15.60;99.90;;;;;;4955576;29;20122;-66
2022/10/25 10:57:55;;;;;;;1.88;1.30;;;15.70;99.90;;;;;;4955567;29;20570;-65
2022/10/25 11:00:27;;;;;;;3.95;1.80;;;15.80;99.90;;;;;;4955449;29;20043;-66
2022/10/25 11:02:53;;;;;;;8.75;1.63;;;16.00;99.90;;;;;;4938255;29;20109;-66
2022/10/25 11:05:28;;;;;;;3.78;1.25;;;16.00;99.90;;;;;;4955291;29;20043;-66
2022/10/25 11:08:07;;;;;;;3.30;1.48;;;16.00;99.90;;;;;;4955133;29;20061;-66
2022/10/25 11:10:37;;;;;;;2.33;1.30;;;15.90;99.90;;;;;;4938305;29;20582;-66
2022/10/25 11:13:17;;;;;;;2.75;1.13;;;15.80;99.90;;;;;;4937823;29;20051;-66
2022/10/25 11:16:08;;;;;;;1.95;1.17;;;15.70;99.90;;;;;;4937874;29;20058;-67
2022/10/25 11:18:41;;;;;;;2.90;0.90;;;15.60;99.90;;;;;;4921822;29;20062;-66
2022/10/25 11:21:35;;;;;;;2.72;1.30;;;15.60;99.90;;;;;;4937647;29;20047;-66
2022/10/25 11:24:10;;;;;;;4.07;1.23;;;15.80;99.90;;;;;;4919455;29;20059;-67
2022/10/25 11:27:04;;;;;;;1.83;1.17;;;15.90;99.90;;;;;;4955009;29;20051;-66
2022/10/25 11:29:41;;;;;;;2.25;1.00;;;16.10;99.90;;;;;;4937283;29;20126;-66
2022/10/25 11:32:27;;;;;;;3.55;0.93;;;16.30;99.90;;;;;;4954543;29;20086;-67
2022/10/25 11:35:02;;;;;;;3.65;1.15;;;16.40;99.90;;;;;;4936695;29;20146;-67
2022/10/25 11:37:38;;;;;;;2.13;1.30;;;16.50;99.90;;;;;;4954503;29;20039;-68
2022/10/25 11:40:29;;;;;;;2.28;1.33;;;16.60;99.90;;;;;;4954798;29;20050;-68
2022/10/25 11:43:28;;;;;;;6.07;1.13;;;16.60;99.90;;;;;;4954793;29;20035;-68
2022/10/25 11:46:21;;;;;;;4.55;1.35;;;16.50;99.90;;;;;;4936462;29;20047;-68
2022/10/25 11:49:03;;;;;;;4.72;1.25;;;16.50;99.90;;;;;;4937505;29;20042;-67
2022/10/25 11:52:03;;;;;;;2.53;1.50;;;16.40;99.90;;;;;;4937465;29;20050;-68
2022/10/25 11:54:58;;;;;;;4.90;1.00;;;16.40;99.90;;;;;;4954324;29;20059;-67
2022/10/25 11:57:24;;;;;;;3.03;1.40;;;16.60;99.90;;;;;;4885908;29;20568;-67
2022/10/25 11:59:59;;;;;;;3.15;1.17;;;16.70;99.90;;;;;;4954305;29;20050;-67
2022/10/25 12:02:34;;;;;;;1.50;0.80;;;16.90;99.90;;;;;;4954565;29;20102;-68
2022/10/25 12:05:29;;;;;;;2.42;0.95;;;17.00;99.90;;;;;;4954408;29;20125;-68
2022/10/25 12:08:17;;;;;;;2.28;1.60;;;17.00;99.90;;;;;;4954445;29;20089;-68
2022/10/25 12:10:56;;;;;;;2.42;0.95;;;17.00;99.90;;;;;;4954456;29;20483;-68
2022/10/25 12:13:31;;;;;;;2.22;0.95;;;17.00;99.90;;;;;;4954356;29;20039;-68
2022/10/25 12:15:58;;;;;;;1.98;0.98;;;17.20;99.90;;;;;;4954076;29;20047;-67
2022/10/25 12:18:38;;;;;;;3.25;1.40;;;17.20;99.90;;;;;;4954410;29;20402;-68
2022/10/25 12:21:06;;;;;;;3.58;1.13;;;17.00;99.90;;;;;;4937306;29;20047;-68
2022/10/25 12:23:41;;;;;;;2.72;1.20;;;17.00;99.90;;;;;;4954348;29;20542;-68
2022/10/25 12:26:33;;;;;;;1.23;0.90;;;16.80;99.90;;;;;;4936832;29;20130;-67
2022/10/25 12:29:04;;;;;;;3.58;1.02;;;16.60;99.90;;;;;;4954022;29;20059;-67
2022/10/25 12:31:37;;;;;;;2.75;1.20;;;16.50;99.90;;;;;;4953991;29;20039;-68
2022/10/25 12:34:25;;;;;;;3.25;1.15;;;16.40;99.90;;;;;;4953957;29;20054;-67
2022/10/25 12:36:56;;;;;;;2.35;1.02;;;16.30;99.90;;;;;;4954241;29;20045;-69
2022/10/25 12:39:38;;;;;;;7.10;1.33;;;16.30;99.90;;;;;;4954274;29;20039;-67
2022/10/25 12:42:20;;;;;;;1.35;0.90;;;16.30;99.90;;;;;;4953914;29;20043;-67
2022/10/25 12:45:10;;;;;;;2.75;1.20;;;16.30;99.90;;;;;;4954046;29;20491;-67
2022/10/25 12:47:57;;;;;;;1.27;0.85;;;16.30;99.90;;;;;;4954097;29;20039;-67
2022/10/25 12:50:46;;;;;;;3.35;1.05;;;16.30;99.90;;;;;;4936626;29;20055;-67
2022/10/25 12:53:58;;;;;;;2.78;0.80;;;16.30;99.90;;;;;;4954159;29;20039;-67
2022/10/25 12:56:30;;;;;;;3.40;0.98;;;16.20;99.90;;;;;;4954766;28;20051;-66
2022/10/25 12:59:36;;;;;;;1.77;0.80;;;16.20;99.90;;;;;;4957719;29;20047;-67
2022/10/25 13:02:27;;;;;;;1.55;0.82;;;16.10;99.90;;;;;;4940465;29;20504;-67
2022/10/25 13:04:52;;;;;;;2.15;0.95;;;16.10;99.90;;;;;;4957569;29;20047;-66
2022/10/25 13:07:21;;;;;;;2.30;1.48;;;16.10;99.90;;;;;;4957377;29;20043;-67
2022/10/25 13:09:47;;;;;;;2.67;1.00;;;16.10;99.90;;;;;;4957190;29;20043;-67